Current | Forecast
Updated: 1:00 PM JST on April 30, 2017
Observed at Tajima, Japan
Temperature 84°F
Humidity 19%
Dew Point 37°F
Wind Variable at 5 mph
Pressure 29.74 in (Steady)
Conditions Clear
Visibility -
UV N/A
Clouds
Yesterday's Maximum 68°F
Yesterday's Minimum 63°F approx.
Yesterday's Cooling Degree Days N/A approx.
Sunrise5:10 AM JST
Sunset6:46 PM JST
Moon Rise8:26 AM JST
Moon Set10:53 PM JST
Moon PhaseMoon Phase
Waxing Crescent
Raw METARMETAR RJBT 300400Z VRB04KT CAVOK 29/03 Q1007


Monday
. High: 73° F.
Tuesday
. High: 73° F.
Wednesday
. High: 66° F.
Thursday
. High: 77° F.
Friday
. High: 78° F.
Saturday
. High: 71° F.
Sunday
. High: 71° F.
Monday
. High: 69° F.

Units: English | Metric

Find the Weather for any City, State or Zipcode, or Country:

U.S. State List | Severe Weather | Tropical Storms | Ski Conditions
United States | Canada | Central America | South America | Asia | Europe | Australia | Africa | Islands

Weather Underground

© Copyright 2017
The Weather Company, LLC